sensor_id;sensor_type;location;lat;lon;timestamp;temperature;humidity
19220;DHT22;9744;49.364;7.484;2022-09-09T00:00:56;14.60;99.90
19220;DHT22;9744;49.364;7.484;2022-09-09T00:03:27;14.60;99.90
19220;DHT22;9744;49.364;7.484;2022-09-09T00:06:01;14.50;99.90
19220;DHT22;9744;49.364;7.484;2022-09-09T00:08:40;14.50;99.90
19220;DHT22;9744;49.364;7.484;2022-09-09T00:11:09;14.50;99.90
19220;DHT22;9744;49.364;7.484;2022-09-09T00:13:43;14.50;99.90
19220;DHT22;9744;49.364;7.484;2022-09-09T00:16:19;14.50;99.90
19220;DHT22;9744;49.364;7.484;2022-09-09T00:18:55;14.50;99.90
19220;DHT22;9744;49.364;7.484;2022-09-09T00:21:26;14.50;99.90
19220;DHT22;9744;49.364;7.484;2022-09-09T00:24:04;14.50;99.90
19220;DHT22;9744;49.364;7.484;2022-09-09T00:26:38;14.50;99.90
19220;DHT22;9744;49.364;7.484;2022-09-09T00:29:21;14.50;99.90
19220;DHT22;9744;49.364;7.484;2022-09-09T00:31:54;14.50;99.90
19220;DHT22;9744;49.364;7.484;2022-09-09T00:34:26;14.50;99.90
19220;DHT22;9744;49.364;7.484;2022-09-09T00:36:56;14.50;99.90
19220;DHT22;9744;49.364;7.484;2022-09-09T00:39:32;14.50;99.90
19220;DHT22;9744;49.364;7.484;2022-09-09T00:42:12;14.50;99.90
19220;DHT22;9744;49.364;7.484;2022-09-09T00:44:53;14.50;99.90
19220;DHT22;9744;49.364;7.484;2022-09-09T00:47:46;14.50;99.90
19220;DHT22;9744;49.364;7.484;2022-09-09T00:50:35;14.50;99.90
19220;DHT22;9744;49.364;7.484;2022-09-09T00:53:20;14.60;99.90
19220;DHT22;9744;49.364;7.484;2022-09-09T00:55:56;14.60;99.90
19220;DHT22;9744;49.364;7.484;2022-09-09T00:58:25;14.60;99.90
19220;DHT22;9744;49.364;7.484;2022-09-09T01:00:57;14.60;99.90
19220;DHT22;9744;49.364;7.484;2022-09-09T01:03:34;14.60;99.90
19220;DHT22;9744;49.364;7.484;2022-09-09T01:06:12;14.60;99.90
19220;DHT22;9744;49.364;7.484;2022-09-09T01:09:03;14.60;99.90
19220;DHT22;9744;49.364;7.484;2022-09-09T01:11:38;14.60;99.90
19220;DHT22;9744;49.364;7.484;2022-09-09T01:14:16;14.60;99.90
19220;DHT22;9744;49.364;7.484;2022-09-09T01:16:47;14.60;99.90
19220;DHT22;9744;49.364;7.484;2022-09-09T01:19:21;14.60;99.90
19220;DHT22;9744;49.364;7.484;2022-09-09T01:22:00;14.60;99.90
19220;DHT22;9744;49.364;7.484;2022-09-09T01:24:38;14.50;99.90
19220;DHT22;9744;49.364;7.484;2022-09-09T01:27:20;14.60;99.90
19220;DHT22;9744;49.364;7.484;2022-09-09T01:29:48;14.60;99.90
19220;DHT22;9744;49.364;7.484;2022-09-09T01:32:40;14.50;99.90
19220;DHT22;9744;49.364;7.484;2022-09-09T01:35:13;14.50;99.90
19220;DHT22;9744;49.364;7.484;2022-09-09T01:37:42;14.50;99.90
19220;DHT22;9744;49.364;7.484;2022-09-09T01:40:09;14.50;99.90
19220;DHT22;9744;49.364;7.484;2022-09-09T01:42:39;14.50;99.90
19220;DHT22;9744;49.364;7.484;2022-09-09T01:45:07;14.50;99.90
19220;DHT22;9744;49.364;7.484;2022-09-09T01:47:35;14.50;99.90
19220;DHT22;9744;49.364;7.484;2022-09-09T01:50:23;14.50;99.90
19220;DHT22;9744;49.364;7.484;2022-09-09T01:52:52;14.50;99.90
19220;DHT22;9744;49.364;7.484;2022-09-09T01:55:29;14.50;99.90
19220;DHT22;9744;49.364;7.484;2022-09-09T01:58:07;14.50;99.90
19220;DHT22;9744;49.364;7.484;2022-09-09T02:00:45;14.50;99.90
19220;DHT22;9744;49.364;7.484;2022-09-09T02:03:21;14.50;99.90
19220;DHT22;9744;49.364;7.484;2022-09-09T02:06:03;14.50;99.90
19220;DHT22;9744;49.364;7.484;2022-09-09T02:08:38;14.50;99.90
19220;DHT22;9744;49.364;7.484;2022-09-09T02:11:12;14.50;99.90
19220;DHT22;9744;49.364;7.484;2022-09-09T02:14:08;14.50;99.90
19220;DHT22;9744;49.364;7.484;2022-09-09T02:16:43;14.40;99.90
19220;DHT22;9744;49.364;7.484;2022-09-09T02:19:15;14.40;99.90
19220;DHT22;9744;49.364;7.484;2022-09-09T02:22:11;14.40;99.90
19220;DHT22;9744;49.364;7.484;2022-09-09T02:24:39;14.40;99.90
19220;DHT22;9744;49.364;7.484;2022-09-09T02:27:18;14.40;99.90
19220;DHT22;9744;49.364;7.484;2022-09-09T02:29:49;14.40;99.90
19220;DHT22;9744;49.364;7.484;2022-09-09T02:32:25;14.40;99.90
19220;DHT22;9744;49.364;7.484;2022-09-09T02:34:55;14.40;99.90
19220;DHT22;9744;49.364;7.484;2022-09-09T02:37:26;14.40;99.90
19220;DHT22;9744;49.364;7.484;2022-09-09T02:39:56;14.40;99.90
19220;DHT22;9744;49.364;7.484;2022-09-09T02:42:24;14.40;99.90
19220;DHT22;9744;49.364;7.484;2022-09-09T02:44:55;14.30;99.90
19220;DHT22;9744;49.364;7.484;2022-09-09T02:47:27;14.30;99.90
19220;DHT22;9744;49.364;7.484;2022-09-09T02:50:11;14.20;99.90
19220;DHT22;9744;49.364;7.484;2022-09-09T02:52:52;14.20;99.90
19220;DHT22;9744;49.364;7.484;2022-09-09T02:55:27;14.10;99.90
19220;DHT22;9744;49.364;7.484;2022-09-09T02:57:59;14.20;99.90
19220;DHT22;9744;49.364;7.484;2022-09-09T03:00:30;14.10;99.90
19220;DHT22;9744;49.364;7.484;2022-09-09T03:03:00;14.10;99.90
19220;DHT22;9744;49.364;7.484;2022-09-09T03:05:28;14.10;99.90
19220;DHT22;9744;49.364;7.484;2022-09-09T03:07:55;14.10;99.90
19220;DHT22;9744;49.364;7.484;2022-09-09T03:10:23;14.00;99.90
19220;DHT22;9744;49.364;7.484;2022-09-09T03:12:50;14.10;99.90
19220;DHT22;9744;49.364;7.484;2022-09-09T03:15:18;14.00;99.90
19220;DHT22;9744;49.364;7.484;2022-09-09T03:17:48;14.00;99.90
19220;DHT22;9744;49.364;7.484;2022-09-09T03:20:15;13.90;99.90
19220;DHT22;9744;49.364;7.484;2022-09-09T03:22:43;13.90;99.90
19220;DHT22;9744;49.364;7.484;2022-09-09T03:25:10;13.90;99.90
19220;DHT22;9744;49.364;7.484;2022-09-09T03:27:38;13.80;99.90
19220;DHT22;9744;49.364;7.484;2022-09-09T03:30:07;13.80;99.90
19220;DHT22;9744;49.364;7.484;2022-09-09T03:32:35;13.80;99.90
19220;DHT22;9744;49.364;7.484;2022-09-09T03:35:04;13.80;99.90
19220;DHT22;9744;49.364;7.484;2022-09-09T03:37:32;13.80;99.90
19220;DHT22;9744;49.364;7.484;2022-09-09T03:39:59;13.70;99.90
19220;DHT22;9744;49.364;7.484;2022-09-09T03:42:27;13.80;99.90
19220;DHT22;9744;49.364;7.484;2022-09-09T03:44:57;13.70;99.90
19220;DHT22;9744;49.364;7.484;2022-09-09T03:47:25;13.70;99.90
19220;DHT22;9744;49.364;7.484;2022-09-09T03:49:59;13.70;99.90
19220;DHT22;9744;49.364;7.484;2022-09-09T03:52:27;13.70;99.90
19220;DHT22;9744;49.364;7.484;2022-09-09T03:54:55;13.70;99.90
19220;DHT22;9744;49.364;7.484;2022-09-09T03:57:23;13.60;99.90
19220;DHT22;9744;49.364;7.484;2022-09-09T03:59:50;13.60;99.90
19220;DHT22;9744;49.364;7.484;2022-09-09T04:02:17;13.60;99.90
19220;DHT22;9744;49.364;7.484;2022-09-09T04:04:44;13.60;99.90
19220;DHT22;9744;49.364;7.484;2022-09-09T04:07:11;13.60;99.90
19220;DHT22;9744;49.364;7.484;2022-09-09T04:09:41;13.60;99.90
19220;DHT22;9744;49.364;7.484;2022-09-09T04:12:08;13.50;99.90
19220;DHT22;9744;49.364;7.484;2022-09-09T04:14:39;13.50;99.90
19220;DHT22;9744;49.364;7.484;2022-09-09T04:17:07;13.50;99.90
19220;DHT22;9744;49.364;7.484;2022-09-09T04:19:34;13.50;99.90
19220;DHT22;9744;49.364;7.484;2022-09-09T04:22:03;13.50;99.90
19220;DHT22;9744;49.364;7.484;2022-09-09T04:24:31;13.50;99.90
19220;DHT22;9744;49.364;7.484;2022-09-09T04:27:02;13.40;99.90
19220;DHT22;9744;49.364;7.484;2022-09-09T04:29:31;13.40;99.90
19220;DHT22;9744;49.364;7.484;2022-09-09T04:31:59;13.40;99.90
19220;DHT22;9744;49.364;7.484;2022-09-09T04:34:26;13.40;99.90
19220;DHT22;9744;49.364;7.484;2022-09-09T04:36:54;13.40;99.90
19220;DHT22;9744;49.364;7.484;2022-09-09T04:39:23;13.40;99.90
19220;DHT22;9744;49.364;7.484;2022-09-09T04:41:51;13.40;99.90
19220;DHT22;9744;49.364;7.484;2022-09-09T04:44:22;13.40;99.90
19220;DHT22;9744;49.364;7.484;2022-09-09T04:46:49;13.40;99.90
19220;DHT22;9744;49.364;7.484;2022-09-09T04:49:16;13.40;99.90
19220;DHT22;9744;49.364;7.484;2022-09-09T04:51:43;13.40;99.90
19220;DHT22;9744;49.364;7.484;2022-09-09T04:54:12;13.40;99.90
19220;DHT22;9744;49.364;7.484;2022-09-09T04:56:42;13.40;99.90
19220;DHT22;9744;49.364;7.484;2022-09-09T04:59:10;13.40;99.90
19220;DHT22;9744;49.364;7.484;2022-09-09T05:01:48;13.40;99.90
19220;DHT22;9744;49.364;7.484;2022-09-09T05:04:16;13.40;99.90
19220;DHT22;9744;49.364;7.484;2022-09-09T05:06:45;13.40;99.90
19220;DHT22;9744;49.364;7.484;2022-09-09T05:09:13;13.50;99.90
19220;DHT22;9744;49.364;7.484;2022-09-09T05:11:40;13.50;99.90
19220;DHT22;9744;49.364;7.484;2022-09-09T05:14:17;13.50;99.90
19220;DHT22;9744;49.364;7.484;2022-09-09T05:16:45;13.50;99.90
19220;DHT22;9744;49.364;7.484;2022-09-09T05:19:14;13.60;99.90
19220;DHT22;9744;49.364;7.484;2022-09-09T05:21:47;13.60;99.90
19220;DHT22;9744;49.364;7.484;2022-09-09T05:24:19;13.60;99.90
19220;DHT22;9744;49.364;7.484;2022-09-09T05:26:51;13.70;99.90
19220;DHT22;9744;49.364;7.484;2022-09-09T05:29:18;13.70;99.90
19220;DHT22;9744;49.364;7.484;2022-09-09T05:31:45;13.70;99.90
19220;DHT22;9744;49.364;7.484;2022-09-09T05:34:17;13.70;99.90
19220;DHT22;9744;49.364;7.484;2022-09-09T05:36:45;13.20;99.90
19220;DHT22;9744;49.364;7.484;2022-09-09T05:39:14;13.70;99.90
19220;DHT22;9744;49.364;7.484;2022-09-09T05:41:42;13.80;99.90
19220;DHT22;9744;49.364;7.484;2022-09-09T05:44:09;13.80;99.90
19220;DHT22;9744;49.364;7.484;2022-09-09T05:46:38;13.80;99.90
19220;DHT22;9744;49.364;7.484;2022-09-09T05:49:06;13.80;99.90
19220;DHT22;9744;49.364;7.484;2022-09-09T05:51:36;13.70;99.90
19220;DHT22;9744;49.364;7.484;2022-09-09T05:54:10;13.70;99.90
19220;DHT22;9744;49.364;7.484;2022-09-09T05:56:42;13.70;99.90
19220;DHT22;9744;49.364;7.484;2022-09-09T05:59:10;13.70;99.90
19220;DHT22;9744;49.364;7.484;2022-09-09T06:01:39;13.60;99.90
19220;DHT22;9744;49.364;7.484;2022-09-09T06:04:09;13.60;99.90
19220;DHT22;9744;49.364;7.484;2022-09-09T06:06:40;13.60;99.90
19220;DHT22;9744;49.364;7.484;2022-09-09T06:09:17;13.60;99.90
19220;DHT22;9744;49.364;7.484;2022-09-09T06:11:44;13.60;99.90
19220;DHT22;9744;49.364;7.484;2022-09-09T06:14:13;13.70;99.90
19220;DHT22;9744;49.364;7.484;2022-09-09T06:16:40;13.70;99.90
19220;DHT22;9744;49.364;7.484;2022-09-09T06:19:24;13.60;99.90
19220;DHT22;9744;49.364;7.484;2022-09-09T06:21:56;13.70;99.90
19220;DHT22;9744;49.364;7.484;2022-09-09T06:24:24;13.70;99.90
19220;DHT22;9744;49.364;7.484;2022-09-09T06:26:51;13.70;99.90
19220;DHT22;9744;49.364;7.484;2022-09-09T06:29:23;13.70;99.90
19220;DHT22;9744;49.364;7.484;2022-09-09T06:31:52;13.80;99.90
19220;DHT22;9744;49.364;7.484;2022-09-09T06:34:24;13.80;99.90
19220;DHT22;9744;49.364;7.484;2022-09-09T06:36:56;13.80;99.90
19220;DHT22;9744;49.364;7.484;2022-09-09T06:39:24;13.80;99.90
19220;DHT22;9744;49.364;7.484;2022-09-09T06:41:52;13.80;99.90
19220;DHT22;9744;49.364;7.484;2022-09-09T06:44:38;13.90;99.90
19220;DHT22;9744;49.364;7.484;2022-09-09T06:47:10;13.90;99.90
19220;DHT22;9744;49.364;7.484;2022-09-09T06:49:39;13.90;99.90
19220;DHT22;9744;49.364;7.484;2022-09-09T06:52:10;13.90;99.90
19220;DHT22;9744;49.364;7.484;2022-09-09T06:54:38;13.90;99.90
19220;DHT22;9744;49.364;7.484;2022-09-09T06:57:05;13.90;99.90
19220;DHT22;9744;49.364;7.484;2022-09-09T06:59:34;14.00;99.90
19220;DHT22;9744;49.364;7.484;2022-09-09T07:02:01;14.00;99.90
19220;DHT22;9744;49.364;7.484;2022-09-09T07:04:29;14.00;99.90
19220;DHT22;9744;49.364;7.484;2022-09-09T07:06:57;14.00;99.90
19220;DHT22;9744;49.364;7.484;2022-09-09T07:09:27;14.10;99.90
19220;DHT22;9744;49.364;7.484;2022-09-09T07:11:55;14.10;99.90
19220;DHT22;9744;49.364;7.484;2022-09-09T07:14:24;14.10;99.90
19220;DHT22;9744;49.364;7.484;2022-09-09T07:16:59;14.10;99.90
19220;DHT22;9744;49.364;7.484;2022-09-09T07:19:31;14.10;99.90
19220;DHT22;9744;49.364;7.484;2022-09-09T07:22:01;14.10;99.90
19220;DHT22;9744;49.364;7.484;2022-09-09T07:24:31;14.20;99.90
19220;DHT22;9744;49.364;7.484;2022-09-09T07:26:58;14.20;99.90
19220;DHT22;9744;49.364;7.484;2022-09-09T07:29:26;14.20;99.90
19220;DHT22;9744;49.364;7.484;2022-09-09T07:31:53;14.30;99.90
19220;DHT22;9744;49.364;7.484;2022-09-09T07:34:26;14.30;99.90
19220;DHT22;9744;49.364;7.484;2022-09-09T07:36:53;14.30;99.90
19220;DHT22;9744;49.364;7.484;2022-09-09T07:39:20;14.30;99.90
19220;DHT22;9744;49.364;7.484;2022-09-09T07:41:54;14.30;99.90
19220;DHT22;9744;49.364;7.484;2022-09-09T07:44:24;14.30;99.90
19220;DHT22;9744;49.364;7.484;2022-09-09T07:46:59;14.40;99.90
19220;DHT22;9744;49.364;7.484;2022-09-09T07:49:33;14.40;99.90
19220;DHT22;9744;49.364;7.484;2022-09-09T07:52:02;14.40;99.90
19220;DHT22;9744;49.364;7.484;2022-09-09T07:54:31;14.40;99.90
19220;DHT22;9744;49.364;7.484;2022-09-09T07:57:01;14.40;99.90
19220;DHT22;9744;49.364;7.484;2022-09-09T07:59:30;14.40;99.90
19220;DHT22;9744;49.364;7.484;2022-09-09T08:02:00;14.50;99.90
19220;DHT22;9744;49.364;7.484;2022-09-09T08:04:30;14.50;99.90
19220;DHT22;9744;49.364;7.484;2022-09-09T08:06:59;14.50;99.90
19220;DHT22;9744;49.364;7.484;2022-09-09T08:09:29;14.50;99.90
19220;DHT22;9744;49.364;7.484;2022-09-09T08:12:06;14.60;99.90
19220;DHT22;9744;49.364;7.484;2022-09-09T08:14:35;14.60;99.90
19220;DHT22;9744;49.364;7.484;2022-09-09T08:17:02;14.60;99.90
19220;DHT22;9744;49.364;7.484;2022-09-09T08:19:32;14.70;99.90
19220;DHT22;9744;49.364;7.484;2022-09-09T08:22:03;14.80;99.90
19220;DHT22;9744;49.364;7.484;2022-09-09T08:24:32;14.80;99.90
19220;DHT22;9744;49.364;7.484;2022-09-09T08:27:00;14.80;99.90
19220;DHT22;9744;49.364;7.484;2022-09-09T08:29:29;14.80;99.90
19220;DHT22;9744;49.364;7.484;2022-09-09T08:31:58;14.80;99.90
19220;DHT22;9744;49.364;7.484;2022-09-09T08:34:27;14.80;99.90
19220;DHT22;9744;49.364;7.484;2022-09-09T08:36:58;14.80;99.90
19220;DHT22;9744;49.364;7.484;2022-09-09T08:39:34;14.90;99.90
19220;DHT22;9744;49.364;7.484;2022-09-09T08:42:31;14.90;99.90
19220;DHT22;9744;49.364;7.484;2022-09-09T08:45:19;14.90;99.90
19220;DHT22;9744;49.364;7.484;2022-09-09T08:47:57;15.00;99.90
19220;DHT22;9744;49.364;7.484;2022-09-09T08:50:29;15.10;99.90
19220;DHT22;9744;49.364;7.484;2022-09-09T08:53:05;15.30;99.90
19220;DHT22;9744;49.364;7.484;2022-09-09T08:55:41;15.40;99.90
19220;DHT22;9744;49.364;7.484;2022-09-09T08:58:14;15.60;99.90
19220;DHT22;9744;49.364;7.484;2022-09-09T09:00:54;15.70;99.90
19220;DHT22;9744;49.364;7.484;2022-09-09T09:03:33;15.80;99.90
19220;DHT22;9744;49.364;7.484;2022-09-09T09:06:09;16.00;99.90
19220;DHT22;9744;49.364;7.484;2022-09-09T09:08:46;16.10;99.90
19220;DHT22;9744;49.364;7.484;2022-09-09T09:11:19;16.20;99.90
19220;DHT22;9744;49.364;7.484;2022-09-09T09:13:50;16.40;99.90
19220;DHT22;9744;49.364;7.484;2022-09-09T09:16:26;16.50;99.90
19220;DHT22;9744;49.364;7.484;2022-09-09T09:18:59;16.40;99.90
19220;DHT22;9744;49.364;7.484;2022-09-09T09:21:41;16.50;99.90
19220;DHT22;9744;49.364;7.484;2022-09-09T09:24:16;16.50;99.90
19220;DHT22;9744;49.364;7.484;2022-09-09T09:26:45;16.50;99.90
19220;DHT22;9744;49.364;7.484;2022-09-09T09:29:15;16.50;99.90
19220;DHT22;9744;49.364;7.484;2022-09-09T09:31:47;16.30;99.90
19220;DHT22;9744;49.364;7.484;2022-09-09T09:34:15;16.30;99.90
19220;DHT22;9744;49.364;7.484;2022-09-09T09:36:46;16.30;99.90
19220;DHT22;9744;49.364;7.484;2022-09-09T09:39:24;16.20;99.90
19220;DHT22;9744;49.364;7.484;2022-09-09T09:41:52;16.20;99.90
19220;DHT22;9744;49.364;7.484;2022-09-09T09:44:25;16.20;99.90
19220;DHT22;9744;49.364;7.484;2022-09-09T09:47:06;16.40;99.90
19220;DHT22;9744;49.364;7.484;2022-09-09T09:49:34;16.40;99.90
19220;DHT22;9744;49.364;7.484;2022-09-09T09:52:03;16.40;99.90
19220;DHT22;9744;49.364;7.484;2022-09-09T09:54:37;16.20;99.90
19220;DHT22;9744;49.364;7.484;2022-09-09T09:57:09;16.30;99.90
19220;DHT22;9744;49.364;7.484;2022-09-09T09:59:37;16.60;99.90
19220;DHT22;9744;49.364;7.484;2022-09-09T10:02:20;16.70;99.90
19220;DHT22;9744;49.364;7.484;2022-09-09T10:05:02;17.10;99.90
19220;DHT22;9744;49.364;7.484;2022-09-09T10:07:32;17.20;99.90
19220;DHT22;9744;49.364;7.484;2022-09-09T10:10:00;17.10;99.90
19220;DHT22;9744;49.364;7.484;2022-09-09T10:12:37;17.10;99.90
19220;DHT22;9744;49.364;7.484;2022-09-09T10:15:24;17.00;99.90
19220;DHT22;9744;49.364;7.484;2022-09-09T10:18:04;16.80;99.90
19220;DHT22;9744;49.364;7.484;2022-09-09T10:20:40;16.80;99.90
19220;DHT22;9744;49.364;7.484;2022-09-09T10:23:20;16.80;99.90
19220;DHT22;9744;49.364;7.484;2022-09-09T10:26:06;16.80;99.90
19220;DHT22;9744;49.364;7.484;2022-09-09T10:28:54;16.40;99.90
19220;DHT22;9744;49.364;7.484;2022-09-09T10:31:29;16.10;99.90
19220;DHT22;9744;49.364;7.484;2022-09-09T10:34:09;15.80;99.90
19220;DHT22;9744;49.364;7.484;2022-09-09T10:36:46;15.80;99.90
19220;DHT22;9744;49.364;7.484;2022-09-09T10:39:23;16.00;99.90
19220;DHT22;9744;49.364;7.484;2022-09-09T10:42:00;16.10;99.90
19220;DHT22;9744;49.364;7.484;2022-09-09T10:45:02;15.90;99.90
19220;DHT22;9744;49.364;7.484;2022-09-09T10:47:52;15.90;99.90
19220;DHT22;9744;49.364;7.484;2022-09-09T10:50:40;15.90;99.90
19220;DHT22;9744;49.364;7.484;2022-09-09T10:53:16;16.20;99.90
19220;DHT22;9744;49.364;7.484;2022-09-09T10:55:50;16.70;99.90
19220;DHT22;9744;49.364;7.484;2022-09-09T10:58:24;16.90;99.90
19220;DHT22;9744;49.364;7.484;2022-09-09T11:00:55;17.20;99.90
19220;DHT22;9744;49.364;7.484;2022-09-09T11:03:26;17.50;99.90
19220;DHT22;9744;49.364;7.484;2022-09-09T11:05:59;17.60;99.90
19220;DHT22;9744;49.364;7.484;2022-09-09T11:08:29;17.90;99.90
19220;DHT22;9744;49.364;7.484;2022-09-09T11:11:00;18.00;99.90
19220;DHT22;9744;49.364;7.484;2022-09-09T11:13:36;17.90;99.90
19220;DHT22;9744;49.364;7.484;2022-09-09T11:16:19;17.70;99.90
19220;DHT22;9744;49.364;7.484;2022-09-09T11:18:49;17.50;99.90
19220;DHT22;9744;49.364;7.484;2022-09-09T11:21:23;17.30;99.90
19220;DHT22;9744;49.364;7.484;2022-09-09T11:23:54;17.30;99.90
19220;DHT22;9744;49.364;7.484;2022-09-09T11:26:29;17.60;99.90
19220;DHT22;9744;49.364;7.484;2022-09-09T11:32:00;17.60;99.90
19220;DHT22;9744;49.364;7.484;2022-09-09T11:34:49;17.20;99.90
19220;DHT22;9744;49.364;7.484;2022-09-09T11:37:45;16.90;99.90
19220;DHT22;9744;49.364;7.484;2022-09-09T11:40:19;16.50;99.90
19220;DHT22;9744;49.364;7.484;2022-09-09T11:42:48;17.00;99.90
19220;DHT22;9744;49.364;7.484;2022-09-09T11:45:24;17.10;99.90
19220;DHT22;9744;49.364;7.484;2022-09-09T11:47:56;16.60;99.90
19220;DHT22;9744;49.364;7.484;2022-09-09T11:50:34;15.40;99.90
19220;DHT22;9744;49.364;7.484;2022-09-09T11:53:22;14.40;99.90
19220;DHT22;9744;49.364;7.484;2022-09-09T11:56:08;14.30;99.90
19220;DHT22;9744;49.364;7.484;2022-09-09T11:58:39;14.50;99.90
19220;DHT22;9744;49.364;7.484;2022-09-09T12:01:28;14.90;99.90
19220;DHT22;9744;49.364;7.484;2022-09-09T12:04:21;15.30;99.90
19220;DHT22;9744;49.364;7.484;2022-09-09T12:06:55;15.40;99.90
19220;DHT22;9744;49.364;7.484;2022-09-09T12:09:32;15.30;99.90
19220;DHT22;9744;49.364;7.484;2022-09-09T12:12:22;15.30;99.90
19220;DHT22;9744;49.364;7.484;2022-09-09T12:14:59;15.30;99.90
19220;DHT22;9744;49.364;7.484;2022-09-09T12:17:28;15.30;99.90
19220;DHT22;9744;49.364;7.484;2022-09-09T12:20:08;15.40;99.90
19220;DHT22;9744;49.364;7.484;2022-09-09T12:25:34;16.20;99.90
19220;DHT22;9744;49.364;7.484;2022-09-09T12:28:09;16.50;99.90
19220;DHT22;9744;49.364;7.484;2022-09-09T12:30:44;16.70;99.90
19220;DHT22;9744;49.364;7.484;2022-09-09T12:33:17;16.70;99.90
19220;DHT22;9744;49.364;7.484;2022-09-09T12:35:49;16.60;99.90
19220;DHT22;9744;49.364;7.484;2022-09-09T12:38:25;16.50;99.90
19220;DHT22;9744;49.364;7.484;2022-09-09T12:40:57;16.40;99.90
19220;DHT22;9744;49.364;7.484;2022-09-09T12:43:26;16.40;99.90
19220;DHT22;9744;49.364;7.484;2022-09-09T12:45:57;16.40;99.90
19220;DHT22;9744;49.364;7.484;2022-09-09T12:48:30;16.30;99.90
19220;DHT22;9744;49.364;7.484;2022-09-09T12:50:59;16.20;99.90
19220;DHT22;9744;49.364;7.484;2022-09-09T12:53:29;16.20;99.90
19220;DHT22;9744;49.364;7.484;2022-09-09T12:56:00;16.20;99.90
19220;DHT22;9744;49.364;7.484;2022-09-09T12:58:29;16.10;99.90
19220;DHT22;9744;49.364;7.484;2022-09-09T13:00:59;16.00;99.90
19220;DHT22;9744;49.364;7.484;2022-09-09T13:03:27;16.00;99.90
19220;DHT22;9744;49.364;7.484;2022-09-09T13:05:58;16.00;99.90
19220;DHT22;9744;49.364;7.484;2022-09-09T13:08:26;16.30;99.90
19220;DHT22;9744;49.364;7.484;2022-09-09T13:10:55;16.40;99.90
19220;DHT22;9744;49.364;7.484;2022-09-09T13:13:29;16.70;99.90
19220;DHT22;9744;49.364;7.484;2022-09-09T13:16:00;17.00;99.90
19220;DHT22;9744;49.364;7.484;2022-09-09T13:18:29;17.40;99.90
19220;DHT22;9744;49.364;7.484;2022-09-09T13:20:59;17.70;99.90
19220;DHT22;9744;49.364;7.484;2022-09-09T13:23:27;17.90;99.90
19220;DHT22;9744;49.364;7.484;2022-09-09T13:25:57;17.70;99.90
19220;DHT22;9744;49.364;7.484;2022-09-09T13:28:28;17.50;99.90
19220;DHT22;9744;49.364;7.484;2022-09-09T13:30:58;17.10;99.90
19220;DHT22;9744;49.364;7.484;2022-09-09T13:33:31;16.70;99.90
19220;DHT22;9744;49.364;7.484;2022-09-09T13:36:01;16.50;99.90
19220;DHT22;9744;49.364;7.484;2022-09-09T13:38:32;16.20;99.90
19220;DHT22;9744;49.364;7.484;2022-09-09T13:41:02;16.10;99.90
19220;DHT22;9744;49.364;7.484;2022-09-09T13:43:36;16.10;99.90
19220;DHT22;9744;49.364;7.484;2022-09-09T13:46:06;16.10;99.90
19220;DHT22;9744;49.364;7.484;2022-09-09T13:48:54;16.20;99.90
19220;DHT22;9744;49.364;7.484;2022-09-09T13:51:38;16.30;99.90
19220;DHT22;9744;49.364;7.484;2022-09-09T13:54:06;16.30;99.90
19220;DHT22;9744;49.364;7.484;2022-09-09T13:56:34;16.30;99.90
19220;DHT22;9744;49.364;7.484;2022-09-09T13:59:05;16.30;99.90
19220;DHT22;9744;49.364;7.484;2022-09-09T14:01:32;16.30;99.90
19220;DHT22;9744;49.364;7.484;2022-09-09T14:04:00;16.30;99.90
19220;DHT22;9744;49.364;7.484;2022-09-09T14:06:28;16.20;99.90
19220;DHT22;9744;49.364;7.484;2022-09-09T14:08:56;16.20;99.90
19220;DHT22;9744;49.364;7.484;2022-09-09T14:11:23;16.10;99.90
19220;DHT22;9744;49.364;7.484;2022-09-09T14:13:50;16.20;99.90
19220;DHT22;9744;49.364;7.484;2022-09-09T14:16:19;16.20;99.90
19220;DHT22;9744;49.364;7.484;2022-09-09T14:18:47;16.30;99.90
19220;DHT22;9744;49.364;7.484;2022-09-09T14:21:15;16.50;99.90
19220;DHT22;9744;49.364;7.484;2022-09-09T14:23:42;16.60;99.90
19220;DHT22;9744;49.364;7.484;2022-09-09T14:26:09;16.70;99.90
19220;DHT22;9744;49.364;7.484;2022-09-09T14:28:37;16.90;99.90
19220;DHT22;9744;49.364;7.484;2022-09-09T14:31:06;17.20;99.90
19220;DHT22;9744;49.364;7.484;2022-09-09T14:33:35;17.50;99.90
19220;DHT22;9744;49.364;7.484;2022-09-09T14:36:04;17.70;99.90
19220;DHT22;9744;49.364;7.484;2022-09-09T14:38:33;17.90;99.90
19220;DHT22;9744;49.364;7.484;2022-09-09T14:41:04;18.00;99.90
19220;DHT22;9744;49.364;7.484;2022-09-09T14:43:32;18.20;99.90
19220;DHT22;9744;49.364;7.484;2022-09-09T14:46:05;18.30;99.90
19220;DHT22;9744;49.364;7.484;2022-09-09T14:48:32;18.30;99.90
19220;DHT22;9744;49.364;7.484;2022-09-09T14:51:07;18.50;99.90
19220;DHT22;9744;49.364;7.484;2022-09-09T14:53:34;18.40;99.90
19220;DHT22;9744;49.364;7.484;2022-09-09T14:56:06;18.40;99.90
19220;DHT22;9744;49.364;7.484;2022-09-09T14:58:34;18.40;99.90
19220;DHT22;9744;49.364;7.484;2022-09-09T15:01:03;18.50;99.90
19220;DHT22;9744;49.364;7.484;2022-09-09T15:03:31;18.50;99.90
19220;DHT22;9744;49.364;7.484;2022-09-09T15:06:06;18.50;99.90
19220;DHT22;9744;49.364;7.484;2022-09-09T15:08:35;18.40;99.90
19220;DHT22;9744;49.364;7.484;2022-09-09T15:11:04;18.50;99.90
19220;DHT22;9744;49.364;7.484;2022-09-09T15:13:33;18.50;99.90
19220;DHT22;9744;49.364;7.484;2022-09-09T15:16:07;18.50;99.90
19220;DHT22;9744;49.364;7.484;2022-09-09T15:18:34;18.40;99.90
19220;DHT22;9744;49.364;7.484;2022-09-09T15:21:07;18.50;99.90
19220;DHT22;9744;49.364;7.484;2022-09-09T15:23:35;18.40;99.90
19220;DHT22;9744;49.364;7.484;2022-09-09T15:26:03;18.50;99.90
19220;DHT22;9744;49.364;7.484;2022-09-09T15:28:32;18.30;99.90
19220;DHT22;9744;49.364;7.484;2022-09-09T15:31:06;18.30;99.90
19220;DHT22;9744;49.364;7.484;2022-09-09T15:33:34;18.20;99.90
19220;DHT22;9744;49.364;7.484;2022-09-09T15:36:14;18.20;99.90
19220;DHT22;9744;49.364;7.484;2022-09-09T15:38:42;18.20;99.90
19220;DHT22;9744;49.364;7.484;2022-09-09T15:41:09;18.20;99.90
19220;DHT22;9744;49.364;7.484;2022-09-09T15:43:37;18.20;99.90
19220;DHT22;9744;49.364;7.484;2022-09-09T15:46:22;18.20;99.90
19220;DHT22;9744;49.364;7.484;2022-09-09T15:48:52;18.10;99.90
19220;DHT22;9744;49.364;7.484;2022-09-09T15:51:21;18.10;99.90
19220;DHT22;9744;49.364;7.484;2022-09-09T15:53:53;17.90;99.90
19220;DHT22;9744;49.364;7.484;2022-09-09T15:56:22;17.70;99.90
19220;DHT22;9744;49.364;7.484;2022-09-09T15:58:49;17.60;99.90
19220;DHT22;9744;49.364;7.484;2022-09-09T16:01:18;17.50;99.90
19220;DHT22;9744;49.364;7.484;2022-09-09T16:03:46;17.40;99.90
19220;DHT22;9744;49.364;7.484;2022-09-09T16:06:17;17.30;99.90
19220;DHT22;9744;49.364;7.484;2022-09-09T16:08:49;17.20;99.90
19220;DHT22;9744;49.364;7.484;2022-09-09T16:11:19;17.20;99.90
19220;DHT22;9744;49.364;7.484;2022-09-09T16:13:48;17.30;99.90
19220;DHT22;9744;49.364;7.484;2022-09-09T16:16:16;17.30;99.90
19220;DHT22;9744;49.364;7.484;2022-09-09T16:18:46;17.50;99.90
19220;DHT22;9744;49.364;7.484;2022-09-09T16:21:15;17.90;99.90
19220;DHT22;9744;49.364;7.484;2022-09-09T16:23:43;18.30;99.90